Upstream stations:
Downstream station:
SHEF ID: BTCO2 Turkey Creek nr Bison, OK
STATION TYPE:
PRECIP STAGE RIV-FLOW VOLTAGE BAT-LOAD
in ft cfs volt volt
Ccp-Rev Ccp-Rev Ccp-Rev Ccp-Rev Ccp-Rev
(US/Central)
09/25 00:00 0.00 5.79 5 12.73 12.57
09/25 01:00 0.00 5.80 5 12.73 12.57
09/25 02:00 0.00 5.75 4 12.73 12.57
09/25 03:00 0.00 5.94 8 12.73 12.57
09/25 04:00 0.00 5.90 7 12.65 12.49
09/25 05:00 0.00 5.77 5 12.65 12.49
09/25 06:00 0.00 5.75 4 12.65 12.49
09/25 07:00 0.00 5.74 4 12.65 12.41
09/25 08:00 0.00 5.83 6 12.81 12.41
09/25 09:00 0.00 5.83 6 13.53 13.05
09/25 10:00 0.00 5.82 6 14.00 13.44
09/25 11:00 0.00 6.02 10 13.76 13.37
09/25 12:00 0.00 5.78 5 13.92 13.53
09/25 13:00 0.00 5.80 5 13.44 13.53
09/25 14:00 0.00 5.76 5 13.84 13.37
09/25 15:00 0.00 5.69 3 14.00 13.84
09/25 16:00 0.00 5.71 4 13.92 13.76
09/25 17:00 0.00 5.81 6 13.68 13.68
09/25 18:00 0.00 5.76 5 13.44 13.37
09/25 19:00 0.00 5.73 4 13.05 13.21
09/25 20:00 0.00 5.77 5 12.81 12.65
09/25 21:00 0.00 5.81 6 12.81 12.65
09/25 22:00 0.00 5.83 6 12.81 12.65
09/25 23:00 0.00 5.84 6 12.73 12.57